sensor_id;sensor_type;location;lat;lon;timestamp;temperature;humidity
77100;SHT31;66602;48.922;2.414;2024-03-25T00:01:54;3.19;89.37
77100;SHT31;66602;48.922;2.414;2024-03-25T00:04:19;3.11;89.19
77100;SHT31;66602;48.922;2.414;2024-03-25T00:06:48;3.01;89.41
77100;SHT31;66602;48.922;2.414;2024-03-25T00:09:13;2.96;89.79
77100;SHT31;66602;48.922;2.414;2024-03-25T00:11:41;3.04;89.95
77100;SHT31;66602;48.922;2.414;2024-03-25T00:14:07;3.13;90.18
77100;SHT31;66602;48.922;2.414;2024-03-25T00:16:33;3.19;89.95
77100;SHT31;66602;48.922;2.414;2024-03-25T00:18:59;3.22;89.74
77100;SHT31;66602;48.922;2.414;2024-03-25T00:21:25;3.23;89.83
77100;SHT31;66602;48.922;2.414;2024-03-25T00:23:50;3.26;89.88
77100;SHT31;66602;48.922;2.414;2024-03-25T00:26:15;3.33;89.99
77100;SHT31;66602;48.922;2.414;2024-03-25T00:28:41;3.30;89.74
77100;SHT31;66602;48.922;2.414;2024-03-25T00:31:06;3.25;89.77
77100;SHT31;66602;48.922;2.414;2024-03-25T00:33:32;3.23;89.97
77100;SHT31;66602;48.922;2.414;2024-03-25T00:35:58;3.30;90.06
77100;SHT31;66602;48.922;2.414;2024-03-25T00:38:24;3.23;89.88
77100;SHT31;66602;48.922;2.414;2024-03-25T00:40:50;3.19;89.76
77100;SHT31;66602;48.922;2.414;2024-03-25T00:43:15;3.18;89.65
77100;SHT31;66602;48.922;2.414;2024-03-25T00:45:41;3.09;89.52
77100;SHT31;66602;48.922;2.414;2024-03-25T00:48:07;2.92;89.31
77100;SHT31;66602;48.922;2.414;2024-03-25T00:50:33;2.88;89.84
77100;SHT31;66602;48.922;2.414;2024-03-25T00:52:58;2.83;89.79
77100;SHT31;66602;48.922;2.414;2024-03-25T00:55:24;2.81;90.36
77100;SHT31;66602;48.922;2.414;2024-03-25T00:57:50;2.84;90.71
77100;SHT31;66602;48.922;2.414;2024-03-25T01:00:16;2.77;90.66
77100;SHT31;66602;48.922;2.414;2024-03-25T01:02:43;2.80;90.80
77100;SHT31;66602;48.922;2.414;2024-03-25T01:05:09;2.78;90.66
77100;SHT31;66602;48.922;2.414;2024-03-25T01:07:35;2.70;90.44
77100;SHT31;66602;48.922;2.414;2024-03-25T01:10:00;2.64;90.85
77100;SHT31;66602;48.922;2.414;2024-03-25T01:12:26;2.65;90.96
77100;SHT31;66602;48.922;2.414;2024-03-25T01:14:52;2.57;90.86
77100;SHT31;66602;48.922;2.414;2024-03-25T01:17:17;2.60;90.98
77100;SHT31;66602;48.922;2.414;2024-03-25T01:19:43;2.61;91.33
77100;SHT31;66602;48.922;2.414;2024-03-25T01:22:09;2.71;91.62
77100;SHT31;66602;48.922;2.414;2024-03-25T01:24:34;2.67;91.25
77100;SHT31;66602;48.922;2.414;2024-03-25T01:27:00;2.64;91.19
77100;SHT31;66602;48.922;2.414;2024-03-25T01:29:26;2.61;91.16
77100;SHT31;66602;48.922;2.414;2024-03-25T01:31:52;2.54;90.94
77100;SHT31;66602;48.922;2.414;2024-03-25T01:34:17;2.41;90.99
77100;SHT31;66602;48.922;2.414;2024-03-25T01:36:43;2.41;91.49
77100;SHT31;66602;48.922;2.414;2024-03-25T01:39:08;2.38;91.44
77100;SHT31;66602;48.922;2.414;2024-03-25T01:41:35;2.38;91.62
77100;SHT31;66602;48.922;2.414;2024-03-25T01:44:01;2.43;92.02
77100;SHT31;66602;48.922;2.414;2024-03-25T01:46:27;2.55;92.93
77100;SHT31;66602;48.922;2.414;2024-03-25T01:48:53;2.67;92.79
77100;SHT31;66602;48.922;2.414;2024-03-25T01:51:21;2.70;92.59
77100;SHT31;66602;48.922;2.414;2024-03-25T01:53:49;2.70;92.35
77100;SHT31;66602;48.922;2.414;2024-03-25T01:56:16;2.77;92.49
77100;SHT31;66602;48.922;2.414;2024-03-25T01:58:42;2.85;92.52
77100;SHT31;66602;48.922;2.414;2024-03-25T02:01:08;2.81;92.22
77100;SHT31;66602;48.922;2.414;2024-03-25T02:03:39;2.68;91.68
77100;SHT31;66602;48.922;2.414;2024-03-25T02:06:07;2.54;91.61
77100;SHT31;66602;48.922;2.414;2024-03-25T02:08:36;2.54;92.21
77100;SHT31;66602;48.922;2.414;2024-03-25T02:11:02;2.58;92.59
77100;SHT31;66602;48.922;2.414;2024-03-25T02:13:27;2.57;92.44
77100;SHT31;66602;48.922;2.414;2024-03-25T02:15:53;2.55;92.46
77100;SHT31;66602;48.922;2.414;2024-03-25T02:18:20;2.61;92.79
77100;SHT31;66602;48.922;2.414;2024-03-25T02:20:46;2.71;93.13
77100;SHT31;66602;48.922;2.414;2024-03-25T02:23:12;2.80;93.04
77100;SHT31;66602;48.922;2.414;2024-03-25T02:25:39;2.74;92.48
77100;SHT31;66602;48.922;2.414;2024-03-25T02:28:05;2.71;92.45
77100;SHT31;66602;48.922;2.414;2024-03-25T02:30:31;2.64;92.25
77100;SHT31;66602;48.922;2.414;2024-03-25T02:32:56;2.51;92.05
77100;SHT31;66602;48.922;2.414;2024-03-25T02:35:23;2.47;92.26
77100;SHT31;66602;48.922;2.414;2024-03-25T02:37:53;2.51;92.81
77100;SHT31;66602;48.922;2.414;2024-03-25T02:40:19;2.57;92.87
77100;SHT31;66602;48.922;2.414;2024-03-25T02:42:46;2.53;92.80
77100;SHT31;66602;48.922;2.414;2024-03-25T02:45:11;2.54;92.80
77100;SHT31;66602;48.922;2.414;2024-03-25T02:47:37;2.48;92.76
77100;SHT31;66602;48.922;2.414;2024-03-25T02:50:03;2.46;92.64
77100;SHT31;66602;48.922;2.414;2024-03-25T02:52:28;2.40;92.52
77100;SHT31;66602;48.922;2.414;2024-03-25T02:54:54;2.38;92.93
77100;SHT31;66602;48.922;2.414;2024-03-25T02:57:20;2.46;93.17
77100;SHT31;66602;48.922;2.414;2024-03-25T02:59:45;2.62;93.46
77100;SHT31;66602;48.922;2.414;2024-03-25T03:02:11;2.68;93.62
77100;SHT31;66602;48.922;2.414;2024-03-25T03:04:36;2.74;93.56
77100;SHT31;66602;48.922;2.414;2024-03-25T03:07:02;2.84;93.44
77100;SHT31;66602;48.922;2.414;2024-03-25T03:09:27;2.88;93.34
77100;SHT31;66602;48.922;2.414;2024-03-25T03:11:53;2.89;93.18
77100;SHT31;66602;48.922;2.414;2024-03-25T03:14:18;2.91;93.05
77100;SHT31;66602;48.922;2.414;2024-03-25T03:16:43;2.95;93.24
77100;SHT31;66602;48.922;2.414;2024-03-25T03:19:09;2.96;93.08
77100;SHT31;66602;48.922;2.414;2024-03-25T03:21:35;2.94;92.87
77100;SHT31;66602;48.922;2.414;2024-03-25T03:24:02;2.85;92.51
77100;SHT31;66602;48.922;2.414;2024-03-25T03:26:27;2.81;92.75
77100;SHT31;66602;48.922;2.414;2024-03-25T03:28:57;2.83;92.91
77100;SHT31;66602;48.922;2.414;2024-03-25T03:31:23;2.88;93.27
77100;SHT31;66602;48.922;2.414;2024-03-25T03:33:49;2.99;93.51
77100;SHT31;66602;48.922;2.414;2024-03-25T03:36:19;3.08;93.22
77100;SHT31;66602;48.922;2.414;2024-03-25T03:38:45;3.01;92.61
77100;SHT31;66602;48.922;2.414;2024-03-25T03:41:10;2.91;92.48
77100;SHT31;66602;48.922;2.414;2024-03-25T03:43:36;2.92;92.83
77100;SHT31;66602;48.922;2.414;2024-03-25T03:46:01;3.01;93.04
77100;SHT31;66602;48.922;2.414;2024-03-25T03:48:28;2.99;92.79
77100;SHT31;66602;48.922;2.414;2024-03-25T03:50:53;2.91;92.30
77100;SHT31;66602;48.922;2.414;2024-03-25T03:53:19;2.78;92.04
77100;SHT31;66602;48.922;2.414;2024-03-25T03:55:55;2.65;92.16
77100;SHT31;66602;48.922;2.414;2024-03-25T03:58:21;2.58;92.32
77100;SHT31;66602;48.922;2.414;2024-03-25T04:00:46;2.47;92.36
77100;SHT31;66602;48.922;2.414;2024-03-25T04:03:12;2.46;92.75
77100;SHT31;66602;48.922;2.414;2024-03-25T04:05:37;2.47;92.76
77100;SHT31;66602;48.922;2.414;2024-03-25T04:08:03;2.46;92.79
77100;SHT31;66602;48.922;2.414;2024-03-25T04:10:28;2.50;93.31
77100;SHT31;66602;48.922;2.414;2024-03-25T04:12:54;2.54;93.37
77100;SHT31;66602;48.922;2.414;2024-03-25T04:15:21;2.58;93.32
77100;SHT31;66602;48.922;2.414;2024-03-25T04:17:47;2.64;93.54
77100;SHT31;66602;48.922;2.414;2024-03-25T04:20:14;2.61;93.18
77100;SHT31;66602;48.922;2.414;2024-03-25T04:22:43;2.60;93.08
77100;SHT31;66602;48.922;2.414;2024-03-25T04:25:10;2.58;93.03
77100;SHT31;66602;48.922;2.414;2024-03-25T04:27:42;2.54;93.19
77100;SHT31;66602;48.922;2.414;2024-03-25T04:30:09;2.60;93.51
77100;SHT31;66602;48.922;2.414;2024-03-25T04:32:35;2.81;93.98
77100;SHT31;66602;48.922;2.414;2024-03-25T04:35:01;2.96;93.90
77100;SHT31;66602;48.922;2.414;2024-03-25T04:37:27;2.94;93.33
77100;SHT31;66602;48.922;2.414;2024-03-25T04:39:56;2.91;93.20
77100;SHT31;66602;48.922;2.414;2024-03-25T04:42:22;2.87;93.06
77100;SHT31;66602;48.922;2.414;2024-03-25T04:44:49;2.77;92.89
77100;SHT31;66602;48.922;2.414;2024-03-25T04:47:14;2.74;92.99
77100;SHT31;66602;48.922;2.414;2024-03-25T04:49:41;2.73;93.26
77100;SHT31;66602;48.922;2.414;2024-03-25T04:52:06;2.78;93.54
77100;SHT31;66602;48.922;2.414;2024-03-25T04:54:32;2.83;93.47
77100;SHT31;66602;48.922;2.414;2024-03-25T04:56:57;2.85;93.43
77100;SHT31;66602;48.922;2.414;2024-03-25T04:59:23;2.95;93.74
77100;SHT31;66602;48.922;2.414;2024-03-25T05:01:49;2.96;93.32
77100;SHT31;66602;48.922;2.414;2024-03-25T05:04:14;2.88;93.02
77100;SHT31;66602;48.922;2.414;2024-03-25T05:06:40;2.80;92.78
77100;SHT31;66602;48.922;2.414;2024-03-25T05:09:05;2.80;93.17
77100;SHT31;66602;48.922;2.414;2024-03-25T05:11:32;2.80;93.21
77100;SHT31;66602;48.922;2.414;2024-03-25T05:13:57;2.77;93.26
77100;SHT31;66602;48.922;2.414;2024-03-25T05:16:23;2.73;93.26
77100;SHT31;66602;48.922;2.414;2024-03-25T05:18:48;2.71;93.38
77100;SHT31;66602;48.922;2.414;2024-03-25T05:21:14;2.74;93.41
77100;SHT31;66602;48.922;2.414;2024-03-25T05:23:40;2.75;93.41
77100;SHT31;66602;48.922;2.414;2024-03-25T05:26:05;2.80;93.42
77100;SHT31;66602;48.922;2.414;2024-03-25T05:28:30;2.77;93.21
77100;SHT31;66602;48.922;2.414;2024-03-25T05:30:56;2.71;93.09
77100;SHT31;66602;48.922;2.414;2024-03-25T05:33:22;2.68;93.07
77100;SHT31;66602;48.922;2.414;2024-03-25T05:35:47;2.67;93.12
77100;SHT31;66602;48.922;2.414;2024-03-25T05:38:13;2.64;93.02
77100;SHT31;66602;48.922;2.414;2024-03-25T05:40:38;2.58;93.05
77100;SHT31;66602;48.922;2.414;2024-03-25T05:43:04;2.58;93.13
77100;SHT31;66602;48.922;2.414;2024-03-25T05:45:29;2.62;93.31
77100;SHT31;66602;48.922;2.414;2024-03-25T05:47:55;2.58;93.09
77100;SHT31;66602;48.922;2.414;2024-03-25T05:50:21;2.55;93.00
77100;SHT31;66602;48.922;2.414;2024-03-25T05:52:48;2.57;93.14
77100;SHT31;66602;48.922;2.414;2024-03-25T05:55:13;2.67;93.21
77100;SHT31;66602;48.922;2.414;2024-03-25T05:57:39;2.73;93.13
77100;SHT31;66602;48.922;2.414;2024-03-25T06:00:04;2.81;93.02
77100;SHT31;66602;48.922;2.414;2024-03-25T06:02:33;2.81;92.70
77100;SHT31;66602;48.922;2.414;2024-03-25T06:04:58;2.77;92.39
77100;SHT31;66602;48.922;2.414;2024-03-25T06:07:23;2.74;92.25
77100;SHT31;66602;48.922;2.414;2024-03-25T06:09:49;2.77;92.31
77100;SHT31;66602;48.922;2.414;2024-03-25T06:12:14;2.71;92.23
77100;SHT31;66602;48.922;2.414;2024-03-25T06:14:40;2.78;92.34
77100;SHT31;66602;48.922;2.414;2024-03-25T06:17:05;2.73;92.00
77100;SHT31;66602;48.922;2.414;2024-03-25T06:19:31;2.75;92.12
77100;SHT31;66602;48.922;2.414;2024-03-25T06:21:57;2.78;92.21
77100;SHT31;66602;48.922;2.414;2024-03-25T06:24:23;2.80;92.07
77100;SHT31;66602;48.922;2.414;2024-03-25T06:26:49;2.85;92.05
77100;SHT31;66602;48.922;2.414;2024-03-25T06:29:14;2.89;92.13
77100;SHT31;66602;48.922;2.414;2024-03-25T06:31:40;2.95;91.96
77100;SHT31;66602;48.922;2.414;2024-03-25T06:34:24;3.04;91.85
77100;SHT31;66602;48.922;2.414;2024-03-25T06:36:51;3.08;91.80
77100;SHT31;66602;48.922;2.414;2024-03-25T06:39:17;3.18;91.88
77100;SHT31;66602;48.922;2.414;2024-03-25T06:41:43;3.42;91.99
77100;SHT31;66602;48.922;2.414;2024-03-25T06:44:09;3.54;91.60
77100;SHT31;66602;48.922;2.414;2024-03-25T06:46:34;3.63;91.01
77100;SHT31;66602;48.922;2.414;2024-03-25T06:49:00;3.70;90.66
77100;SHT31;66602;48.922;2.414;2024-03-25T06:51:26;3.77;90.39
77100;SHT31;66602;48.922;2.414;2024-03-25T06:53:51;3.78;90.15
77100;SHT31;66602;48.922;2.414;2024-03-25T06:56:17;3.80;89.98
77100;SHT31;66602;48.922;2.414;2024-03-25T06:58:42;3.91;90.15
77100;SHT31;66602;48.922;2.414;2024-03-25T07:01:11;3.94;89.71
77100;SHT31;66602;48.922;2.414;2024-03-25T07:03:38;4.08;89.78
77100;SHT31;66602;48.922;2.414;2024-03-25T07:06:04;4.25;89.41
77100;SHT31;66602;48.922;2.414;2024-03-25T07:08:30;5.44;88.27
77100;SHT31;66602;48.922;2.414;2024-03-25T07:10:56;7.13;83.11
77100;SHT31;66602;48.922;2.414;2024-03-25T07:13:22;8.63;75.76
77100;SHT31;66602;48.922;2.414;2024-03-25T07:15:48;9.97;69.14
77100;SHT31;66602;48.922;2.414;2024-03-25T07:18:13;10.61;67.93
77100;SHT31;66602;48.922;2.414;2024-03-25T07:20:43;11.13;64.79
77100;SHT31;66602;48.922;2.414;2024-03-25T07:23:09;12.33;60.76
77100;SHT31;66602;48.922;2.414;2024-03-25T07:25:35;12.37;58.09
77100;SHT31;66602;48.922;2.414;2024-03-25T07:28:01;12.32;59.37
77100;SHT31;66602;48.922;2.414;2024-03-25T07:30:27;12.77;58.56
77100;SHT31;66602;48.922;2.414;2024-03-25T07:32:56;12.77;58.09
77100;SHT31;66602;48.922;2.414;2024-03-25T07:35:22;12.97;56.60
77100;SHT31;66602;48.922;2.414;2024-03-25T07:37:47;13.08;55.65
77100;SHT31;66602;48.922;2.414;2024-03-25T07:40:20;13.52;54.94
77100;SHT31;66602;48.922;2.414;2024-03-25T07:42:46;13.89;53.25
77100;SHT31;66602;48.922;2.414;2024-03-25T07:45:12;13.42;55.27
77100;SHT31;66602;48.922;2.414;2024-03-25T07:47:38;14.14;53.08
77100;SHT31;66602;48.922;2.414;2024-03-25T07:50:03;14.79;53.08
77100;SHT31;66602;48.922;2.414;2024-03-25T07:52:31;15.87;50.13
77100;SHT31;66602;48.922;2.414;2024-03-25T07:54:57;16.52;46.62
77100;SHT31;66602;48.922;2.414;2024-03-25T07:57:23;17.24;47.02
77100;SHT31;66602;48.922;2.414;2024-03-25T07:59:48;18.06;42.92
77100;SHT31;66602;48.922;2.414;2024-03-25T08:02:15;17.96;42.62
77100;SHT31;66602;48.922;2.414;2024-03-25T08:04:40;18.65;43.69
77100;SHT31;66602;48.922;2.414;2024-03-25T08:07:06;17.91;42.54
77100;SHT31;66602;48.922;2.414;2024-03-25T08:09:31;18.61;40.20
77100;SHT31;66602;48.922;2.414;2024-03-25T08:11:57;19.10;39.92
77100;SHT31;66602;48.922;2.414;2024-03-25T08:14:23;18.66;40.22
77100;SHT31;66602;48.922;2.414;2024-03-25T08:16:49;17.86;41.07
77100;SHT31;66602;48.922;2.414;2024-03-25T08:19:14;17.49;41.34
77100;SHT31;66602;48.922;2.414;2024-03-25T08:21:40;18.18;40.08
77100;SHT31;66602;48.922;2.414;2024-03-25T08:24:05;18.54;39.67
77100;SHT31;66602;48.922;2.414;2024-03-25T08:26:31;18.47;39.43
77100;SHT31;66602;48.922;2.414;2024-03-25T08:28:57;18.08;40.45
77100;SHT31;66602;48.922;2.414;2024-03-25T08:31:23;18.88;39.75
77100;SHT31;66602;48.922;2.414;2024-03-25T08:33:49;19.00;38.89
77100;SHT31;66602;48.922;2.414;2024-03-25T08:36:15;18.62;39.05
77100;SHT31;66602;48.922;2.414;2024-03-25T08:38:41;18.94;39.99
77100;SHT31;66602;48.922;2.414;2024-03-25T08:41:07;20.19;37.35
77100;SHT31;66602;48.922;2.414;2024-03-25T08:43:32;20.30;36.57
77100;SHT31;66602;48.922;2.414;2024-03-25T08:45:58;19.30;38.49
77100;SHT31;66602;48.922;2.414;2024-03-25T08:48:24;19.61;36.76
77100;SHT31;66602;48.922;2.414;2024-03-25T08:50:49;19.82;36.44
77100;SHT31;66602;48.922;2.414;2024-03-25T08:53:15;20.32;35.79
77100;SHT31;66602;48.922;2.414;2024-03-25T08:55:47;20.01;36.35
77100;SHT31;66602;48.922;2.414;2024-03-25T08:58:16;19.87;36.86
77100;SHT31;66602;48.922;2.414;2024-03-25T09:00:42;20.25;37.01
77100;SHT31;66602;48.922;2.414;2024-03-25T09:03:08;20.36;36.87
77100;SHT31;66602;48.922;2.414;2024-03-25T09:05:36;19.92;37.61
77100;SHT31;66602;48.922;2.414;2024-03-25T09:08:05;19.58;39.27
77100;SHT31;66602;48.922;2.414;2024-03-25T09:10:31;19.60;39.05
77100;SHT31;66602;48.922;2.414;2024-03-25T09:13:15;20.12;37.98
77100;SHT31;66602;48.922;2.414;2024-03-25T09:15:41;20.01;37.85
77100;SHT31;66602;48.922;2.414;2024-03-25T09:18:07;20.95;37.73
77100;SHT31;66602;48.922;2.414;2024-03-25T09:20:32;21.73;36.52
77100;SHT31;66602;48.922;2.414;2024-03-25T09:22:58;20.64;37.64
77100;SHT31;66602;48.922;2.414;2024-03-25T09:25:23;20.91;37.84
77100;SHT31;66602;48.922;2.414;2024-03-25T09:27:50;20.67;38.61
77100;SHT31;66602;48.922;2.414;2024-03-25T09:30:16;20.43;38.33
77100;SHT31;66602;48.922;2.414;2024-03-25T09:32:43;20.24;38.96
77100;SHT31;66602;48.922;2.414;2024-03-25T09:35:09;20.22;38.09
77100;SHT31;66602;48.922;2.414;2024-03-25T09:37:35;19.88;38.82
77100;SHT31;66602;48.922;2.414;2024-03-25T09:40:01;20.32;39.71
77100;SHT31;66602;48.922;2.414;2024-03-25T09:42:34;19.20;41.55
77100;SHT31;66602;48.922;2.414;2024-03-25T09:45:01;19.37;40.66
77100;SHT31;66602;48.922;2.414;2024-03-25T09:47:28;19.75;39.83
77100;SHT31;66602;48.922;2.414;2024-03-25T09:49:58;19.50;40.17
77100;SHT31;66602;48.922;2.414;2024-03-25T09:52:24;20.02;39.44
77100;SHT31;66602;48.922;2.414;2024-03-25T09:54:50;18.95;41.74
77100;SHT31;66602;48.922;2.414;2024-03-25T09:57:16;18.69;42.51
77100;SHT31;66602;48.922;2.414;2024-03-25T09:59:42;19.17;41.47
77100;SHT31;66602;48.922;2.414;2024-03-25T10:02:10;19.33;40.91
77100;SHT31;66602;48.922;2.414;2024-03-25T10:04:44;17.98;43.86
77100;SHT31;66602;48.922;2.414;2024-03-25T10:07:10;19.50;41.10
77100;SHT31;66602;48.922;2.414;2024-03-25T10:09:35;17.94;44.46
77100;SHT31;66602;48.922;2.414;2024-03-25T10:12:01;19.31;42.44
77100;SHT31;66602;48.922;2.414;2024-03-25T10:14:26;18.11;43.47
77100;SHT31;66602;48.922;2.414;2024-03-25T10:16:52;17.42;44.63
77100;SHT31;66602;48.922;2.414;2024-03-25T10:19:17;18.73;42.61
77100;SHT31;66602;48.922;2.414;2024-03-25T10:21:43;19.75;39.62
77100;SHT31;66602;48.922;2.414;2024-03-25T10:24:08;21.11;36.85
77100;SHT31;66602;48.922;2.414;2024-03-25T10:26:34;21.00;37.03
77100;SHT31;66602;48.922;2.414;2024-03-25T10:29:06;19.47;38.04
77100;SHT31;66602;48.922;2.414;2024-03-25T10:31:32;18.78;39.57
77100;SHT31;66602;48.922;2.414;2024-03-25T10:33:58;19.30;40.69
77100;SHT31;66602;48.922;2.414;2024-03-25T10:36:24;19.24;39.60
77100;SHT31;66602;48.922;2.414;2024-03-25T10:38:55;18.88;39.69
77100;SHT31;66602;48.922;2.414;2024-03-25T10:41:22;20.11;38.34
77100;SHT31;66602;48.922;2.414;2024-03-25T10:43:48;21.10;37.24
77100;SHT31;66602;48.922;2.414;2024-03-25T10:46:22;21.81;34.70
77100;SHT31;66602;48.922;2.414;2024-03-25T10:48:54;21.41;34.26
77100;SHT31;66602;48.922;2.414;2024-03-25T10:51:21;21.01;35.27
77100;SHT31;66602;48.922;2.414;2024-03-25T10:53:51;21.15;34.39
77100;SHT31;66602;48.922;2.414;2024-03-25T10:56:20;20.02;35.71
77100;SHT31;66602;48.922;2.414;2024-03-25T10:58:49;20.66;35.40
77100;SHT31;66602;48.922;2.414;2024-03-25T11:01:19;19.31;37.09
77100;SHT31;66602;48.922;2.414;2024-03-25T11:03:46;19.63;37.01
77100;SHT31;66602;48.922;2.414;2024-03-25T11:06:13;20.11;34.77
77100;SHT31;66602;48.922;2.414;2024-03-25T11:08:39;19.94;34.89
77100;SHT31;66602;48.922;2.414;2024-03-25T11:11:07;20.66;32.77
77100;SHT31;66602;48.922;2.414;2024-03-25T11:13:32;21.49;31.65
77100;SHT31;66602;48.922;2.414;2024-03-25T11:15:59;21.61;32.20
77100;SHT31;66602;48.922;2.414;2024-03-25T11:18:25;21.32;32.54
77100;SHT31;66602;48.922;2.414;2024-03-25T11:21:05;21.05;31.94
77100;SHT31;66602;48.922;2.414;2024-03-25T11:24:05;21.52;32.89
77100;SHT31;66602;48.922;2.414;2024-03-25T11:26:31;22.12;31.55
77100;SHT31;66602;48.922;2.414;2024-03-25T11:29:00;21.55;31.87
77100;SHT31;66602;48.922;2.414;2024-03-25T11:31:26;21.17;33.01
77100;SHT31;66602;48.922;2.414;2024-03-25T11:33:53;21.34;32.09
77100;SHT31;66602;48.922;2.414;2024-03-25T11:36:18;20.81;32.54
77100;SHT31;66602;48.922;2.414;2024-03-25T11:38:46;21.72;32.19
77100;SHT31;66602;48.922;2.414;2024-03-25T11:41:12;22.39;31.82
77100;SHT31;66602;48.922;2.414;2024-03-25T11:43:37;23.01;31.70
77100;SHT31;66602;48.922;2.414;2024-03-25T11:46:03;22.82;30.39
77100;SHT31;66602;48.922;2.414;2024-03-25T11:48:29;21.52;31.37
77100;SHT31;66602;48.922;2.414;2024-03-25T11:50:55;21.89;33.03
77100;SHT31;66602;48.922;2.414;2024-03-25T11:53:20;21.97;30.92
77100;SHT31;66602;48.922;2.414;2024-03-25T11:55:47;20.52;32.51
77100;SHT31;66602;48.922;2.414;2024-03-25T11:58:13;21.23;31.43
77100;SHT31;66602;48.922;2.414;2024-03-25T12:00:46;21.35;31.55
77100;SHT31;66602;48.922;2.414;2024-03-25T12:03:14;22.36;30.48
77100;SHT31;66602;48.922;2.414;2024-03-25T12:05:40;23.42;29.75
77100;SHT31;66602;48.922;2.414;2024-03-25T12:08:09;23.54;28.29
77100;SHT31;66602;48.922;2.414;2024-03-25T12:10:36;23.57;28.80
77100;SHT31;66602;48.922;2.414;2024-03-25T12:13:20;22.36;31.45
77100;SHT31;66602;48.922;2.414;2024-03-25T12:15:47;22.23;30.32
77100;SHT31;66602;48.922;2.414;2024-03-25T12:18:16;22.54;29.74
77100;SHT31;66602;48.922;2.414;2024-03-25T12:20:44;23.70;28.41
77100;SHT31;66602;48.922;2.414;2024-03-25T12:23:10;23.57;28.37
77100;SHT31;66602;48.922;2.414;2024-03-25T12:25:35;22.75;28.54
77100;SHT31;66602;48.922;2.414;2024-03-25T12:28:01;21.79;29.91
77100;SHT31;66602;48.922;2.414;2024-03-25T12:30:27;21.73;29.82
77100;SHT31;66602;48.922;2.414;2024-03-25T12:32:54;22.12;29.83
77100;SHT31;66602;48.922;2.414;2024-03-25T12:35:19;22.20;29.35
77100;SHT31;66602;48.922;2.414;2024-03-25T12:37:48;21.07;32.47
77100;SHT31;66602;48.922;2.414;2024-03-25T12:40:27;21.92;31.13
77100;SHT31;66602;48.922;2.414;2024-03-25T12:42:53;22.40;31.50
77100;SHT31;66602;48.922;2.414;2024-03-25T12:45:22;22.69;30.70
77100;SHT31;66602;48.922;2.414;2024-03-25T12:47:51;22.44;30.37
77100;SHT31;66602;48.922;2.414;2024-03-25T12:50:16;22.31;30.97
77100;SHT31;66602;48.922;2.414;2024-03-25T12:52:42;22.81;30.37
77100;SHT31;66602;48.922;2.414;2024-03-25T12:55:07;21.69;30.86
77100;SHT31;66602;48.922;2.414;2024-03-25T12:57:34;22.57;32.14
77100;SHT31;66602;48.922;2.414;2024-03-25T13:00:00;23.02;30.63
77100;SHT31;66602;48.922;2.414;2024-03-25T13:02:26;24.04;28.52
77100;SHT31;66602;48.922;2.414;2024-03-25T13:04:52;22.99;28.71
77100;SHT31;66602;48.922;2.414;2024-03-25T13:07:17;21.34;32.11
77100;SHT31;66602;48.922;2.414;2024-03-25T13:09:43;20.80;32.31
77100;SHT31;66602;48.922;2.414;2024-03-25T13:12:08;20.72;33.00
77100;SHT31;66602;48.922;2.414;2024-03-25T13:14:34;21.44;33.31
77100;SHT31;66602;48.922;2.414;2024-03-25T13:16:59;21.27;31.82
77100;SHT31;66602;48.922;2.414;2024-03-25T13:19:25;21.94;32.08
77100;SHT31;66602;48.922;2.414;2024-03-25T13:21:53;22.44;30.79
77100;SHT31;66602;48.922;2.414;2024-03-25T13:24:18;23.05;30.35
77100;SHT31;66602;48.922;2.414;2024-03-25T13:26:44;22.65;30.19
77100;SHT31;66602;48.922;2.414;2024-03-25T13:29:09;20.87;32.01
77100;SHT31;66602;48.922;2.414;2024-03-25T13:31:36;20.18;32.94
77100;SHT31;66602;48.922;2.414;2024-03-25T13:34:02;19.82;33.18
77100;SHT31;66602;48.922;2.414;2024-03-25T13:36:28;19.77;32.98
77100;SHT31;66602;48.922;2.414;2024-03-25T13:38:53;20.72;32.85
77100;SHT31;66602;48.922;2.414;2024-03-25T13:41:19;21.04;31.59
77100;SHT31;66602;48.922;2.414;2024-03-25T13:43:47;20.45;32.11
77100;SHT31;66602;48.922;2.414;2024-03-25T13:46:12;20.25;33.96
77100;SHT31;66602;48.922;2.414;2024-03-25T13:48:38;19.73;34.32
77100;SHT31;66602;48.922;2.414;2024-03-25T13:51:04;19.77;34.68
77100;SHT31;66602;48.922;2.414;2024-03-25T13:53:30;19.82;35.54
77100;SHT31;66602;48.922;2.414;2024-03-25T13:55:55;19.44;34.31
77100;SHT31;66602;48.922;2.414;2024-03-25T13:58:21;19.58;34.77
77100;SHT31;66602;48.922;2.414;2024-03-25T14:00:46;19.61;33.76
77100;SHT31;66602;48.922;2.414;2024-03-25T14:03:12;19.84;34.59
77100;SHT31;66602;48.922;2.414;2024-03-25T14:05:37;19.96;36.27
77100;SHT31;66602;48.922;2.414;2024-03-25T14:08:03;19.53;36.76
77100;SHT31;66602;48.922;2.414;2024-03-25T14:10:29;19.00;36.97
77100;SHT31;66602;48.922;2.414;2024-03-25T14:12:55;18.30;37.89
77100;SHT31;66602;48.922;2.414;2024-03-25T14:15:21;18.03;38.88
77100;SHT31;66602;48.922;2.414;2024-03-25T14:17:46;17.77;38.68
77100;SHT31;66602;48.922;2.414;2024-03-25T14:20:12;17.22;38.39
77100;SHT31;66602;48.922;2.414;2024-03-25T14:22:37;16.97;40.74
77100;SHT31;66602;48.922;2.414;2024-03-25T14:25:03;16.95;40.47
77100;SHT31;66602;48.922;2.414;2024-03-25T14:27:29;16.84;40.07
77100;SHT31;66602;48.922;2.414;2024-03-25T14:29:54;16.73;39.01
77100;SHT31;66602;48.922;2.414;2024-03-25T14:32:21;16.67;40.19
77100;SHT31;66602;48.922;2.414;2024-03-25T14:34:47;15.74;41.32
77100;SHT31;66602;48.922;2.414;2024-03-25T14:37:13;15.36;43.07
77100;SHT31;66602;48.922;2.414;2024-03-25T14:39:40;15.20;42.92
77100;SHT31;66602;48.922;2.414;2024-03-25T14:42:08;14.99;44.19
77100;SHT31;66602;48.922;2.414;2024-03-25T14:44:37;14.80;42.56
77100;SHT31;66602;48.922;2.414;2024-03-25T14:47:03;14.73;43.24
77100;SHT31;66602;48.922;2.414;2024-03-25T14:49:29;14.80;43.31
77100;SHT31;66602;48.922;2.414;2024-03-25T14:51:55;14.90;42.50
77100;SHT31;66602;48.922;2.414;2024-03-25T14:54:20;14.79;41.84
77100;SHT31;66602;48.922;2.414;2024-03-25T14:56:46;14.59;42.33
77100;SHT31;66602;48.922;2.414;2024-03-25T14:59:12;14.72;43.32
77100;SHT31;66602;48.922;2.414;2024-03-25T15:01:38;14.82;43.97
77100;SHT31;66602;48.922;2.414;2024-03-25T15:04:04;15.07;43.43
77100;SHT31;66602;48.922;2.414;2024-03-25T15:06:30;15.27;42.06
77100;SHT31;66602;48.922;2.414;2024-03-25T15:08:59;15.37;41.82
77100;SHT31;66602;48.922;2.414;2024-03-25T15:11:25;15.11;43.72
77100;SHT31;66602;48.922;2.414;2024-03-25T15:13:53;15.22;43.82
77100;SHT31;66602;48.922;2.414;2024-03-25T15:16:19;15.34;42.61
77100;SHT31;66602;48.922;2.414;2024-03-25T15:18:44;15.23;43.20
77100;SHT31;66602;48.922;2.414;2024-03-25T15:21:10;14.92;43.40
77100;SHT31;66602;48.922;2.414;2024-03-25T15:23:36;14.96;43.53
77100;SHT31;66602;48.922;2.414;2024-03-25T15:26:02;15.04;44.34
77100;SHT31;66602;48.922;2.414;2024-03-25T15:28:27;15.03;44.74
77100;SHT31;66602;48.922;2.414;2024-03-25T15:30:54;15.19;45.11
77100;SHT31;66602;48.922;2.414;2024-03-25T15:33:21;14.93;45.92